createdAt,value
2023-03-08T00:01:39.307Z,12.33
2023-03-08T00:04:07.763Z,14.57
2023-03-08T00:06:36.247Z,14.27
2023-03-08T00:09:05.080Z,11.40
2023-03-08T00:11:33.549Z,15.32
2023-03-08T00:14:03.291Z,12.67
2023-03-08T00:16:32.889Z,11.77
2023-03-08T00:19:01.556Z,11.60
2023-03-08T00:21:30.040Z,12.07
2023-03-08T00:23:58.421Z,12.20
2023-03-08T00:26:27.056Z,15.23
2023-03-08T00:28:55.515Z,12.73
2023-03-08T00:31:24.063Z,13.15
2023-03-08T00:33:56.856Z,12.27
2023-03-08T00:36:25.383Z,11.65
2023-03-08T00:38:53.826Z,11.17
2023-03-08T00:41:22.390Z,13.50
2023-03-08T00:43:51.082Z,12.55
2023-03-08T00:46:19.936Z,13.18
2023-03-08T00:48:48.555Z,13.02
2023-03-08T00:51:19.378Z,11.47
2023-03-08T00:53:48.500Z,13.85
2023-03-08T00:56:16.859Z,12.27
2023-03-08T00:58:45.588Z,11.95
2023-03-08T01:01:16.796Z,13.57
2023-03-08T01:03:45.580Z,12.57
2023-03-08T01:06:15.316Z,13.10
2023-03-08T01:08:44.875Z,12.15
2023-03-08T01:11:17.985Z,12.13
2023-03-08T01:13:47.861Z,13.38
2023-03-08T01:16:18.069Z,13.13
2023-03-08T01:18:46.458Z,12.15
2023-03-08T01:21:15.034Z,13.77
2023-03-08T01:23:45.045Z,12.50
2023-03-08T01:26:15.346Z,14.75
2023-03-08T01:28:44.130Z,11.70
2023-03-08T01:31:14.201Z,12.57
2023-03-08T01:33:43.038Z,11.55
2023-03-08T01:36:14.910Z,12.60
2023-03-08T01:38:50.789Z,12.13
2023-03-08T01:41:21.963Z,11.27
2023-03-08T01:43:51.909Z,12.80
2023-03-08T01:46:29.772Z,12.23
2023-03-08T01:49:07.320Z,13.02
2023-03-08T01:54:47.826Z,13.30
2023-03-08T01:57:20.665Z,12.80
2023-03-08T01:59:50.727Z,12.15
2023-03-08T02:02:23.704Z,12.18
2023-03-08T02:04:55.015Z,13.35
2023-03-08T02:07:33.499Z,11.40
2023-03-08T02:10:07.989Z,13.90
2023-03-08T02:12:37.635Z,12.18
2023-03-08T02:15:07.880Z,13.10
2023-03-08T02:17:37.851Z,11.63
2023-03-08T02:20:14.882Z,14.57
2023-03-08T02:22:45.370Z,12.48
2023-03-08T02:25:16.171Z,11.80
2023-03-08T02:27:44.630Z,14.15
2023-03-08T02:30:15.197Z,11.98
2023-03-08T02:32:44.036Z,12.93
2023-03-08T02:35:12.507Z,12.32
2023-03-08T02:37:41.980Z,13.52
2023-03-08T02:40:13.138Z,12.52
2023-03-08T02:42:41.559Z,10.55
2023-03-08T02:45:34.058Z,13.07
2023-03-08T02:48:03.131Z,13.85
2023-03-08T02:50:32.605Z,14.90
2023-03-08T02:53:00.937Z,14.13
2023-03-08T02:55:30.428Z,12.70
2023-03-08T02:57:58.944Z,14.57
2023-03-08T03:00:27.307Z,15.27
2023-03-08T03:02:55.664Z,13.88
2023-03-08T03:05:24.104Z,12.73
2023-03-08T03:07:55.326Z,14.80
2023-03-08T03:10:23.763Z,14.27
2023-03-08T03:12:53.250Z,11.05
2023-03-08T03:15:24.843Z,16.10
2023-03-08T03:17:58.019Z,13.75
2023-03-08T03:20:26.623Z,15.98
2023-03-08T03:22:54.968Z,18.88
2023-03-08T03:25:29.416Z,15.48
2023-03-08T03:27:59.321Z,12.63
2023-03-08T03:30:30.051Z,14.98
2023-03-08T03:32:58.725Z,13.13
2023-03-08T03:35:31.206Z,15.82
2023-03-08T03:37:59.756Z,15.60
2023-03-08T03:40:29.100Z,14.70
2023-03-08T03:43:03.109Z,14.50
2023-03-08T03:45:31.688Z,17.38
2023-03-08T03:48:00.204Z,14.68
2023-03-08T03:50:29.518Z,17.00
2023-03-08T03:53:05.957Z,17.52
2023-03-08T03:55:34.740Z,13.77
2023-03-08T03:58:06.057Z,15.93
2023-03-08T04:00:34.720Z,16.63
2023-03-08T04:03:14.015Z,14.30
2023-03-08T04:05:44.107Z,16.60
2023-03-08T04:08:12.815Z,15.35
2023-03-08T04:10:43.489Z,16.30
2023-03-08T04:13:16.250Z,16.63
2023-03-08T04:15:44.852Z,16.63
2023-03-08T04:18:14.902Z,17.65
2023-03-08T04:20:46.790Z,19.80
2023-03-08T04:23:16.756Z,20.95
2023-03-08T04:25:48.915Z,19.17
2023-03-08T04:28:19.205Z,16.15
2023-03-08T04:30:47.945Z,15.90
2023-03-08T04:33:18.373Z,17.30
2023-03-08T04:35:50.154Z,16.92
2023-03-08T04:38:21.256Z,16.40
2023-03-08T04:41:05.594Z,16.17
2023-03-08T04:43:48.282Z,20.20
2023-03-08T04:46:17.760Z,17.60
2023-03-08T04:48:46.890Z,17.48
2023-03-08T04:51:18.123Z,17.38
2023-03-08T04:53:48.354Z,16.48
2023-03-08T04:56:17.495Z,16.52
2023-03-08T04:58:47.830Z,16.38
2023-03-08T05:01:20.115Z,14.77
2023-03-08T05:03:49.914Z,15.88
2023-03-08T05:06:20.757Z,18.98
2023-03-08T05:08:49.887Z,19.55
2023-03-08T05:11:21.233Z,16.70
2023-03-08T05:13:50.789Z,18.10
2023-03-08T05:16:19.274Z,16.23
2023-03-08T05:18:47.881Z,16.90
2023-03-08T05:21:19.804Z,17.20
2023-03-08T05:23:52.638Z,21.90
2023-03-08T05:26:24.646Z,17.67
2023-03-08T05:28:54.608Z,17.88
2023-03-08T05:31:40.118Z,21.33
2023-03-08T05:34:11.898Z,18.90
2023-03-08T05:36:43.516Z,22.60
2023-03-08T05:39:12.785Z,17.42
2023-03-08T05:42:01.465Z,18.25
2023-03-08T05:44:38.424Z,17.75
2023-03-08T05:47:08.618Z,20.90
2023-03-08T05:49:38.259Z,18.00
2023-03-08T05:52:08.162Z,21.95
2023-03-08T05:54:37.374Z,21.42
2023-03-08T05:57:11.053Z,17.73
2023-03-08T05:59:41.037Z,18.05
2023-03-08T06:02:12.190Z,20.23
2023-03-08T06:04:45.182Z,21.67
2023-03-08T06:07:16.453Z,17.63
2023-03-08T06:09:51.725Z,19.00
2023-03-08T06:12:20.268Z,18.35
2023-03-08T06:14:54.264Z,19.35
2023-03-08T06:17:25.409Z,21.05
2023-03-08T06:19:56.311Z,18.15
2023-03-08T06:22:24.862Z,20.42
2023-03-08T06:24:54.985Z,19.48
2023-03-08T06:27:34.927Z,23.75
2023-03-08T06:30:10.754Z,23.20
2023-03-08T06:32:39.473Z,28.48
2023-03-08T06:35:09.164Z,24.83
2023-03-08T06:37:43.225Z,30.83
2023-03-08T06:40:13.953Z,25.90
2023-03-08T06:42:43.443Z,22.45
2023-03-08T06:45:16.500Z,23.23
2023-03-08T06:47:49.064Z,23.50
2023-03-08T06:50:17.481Z,19.25
2023-03-08T06:52:48.196Z,23.88
2023-03-08T06:55:19.957Z,20.52
2023-03-08T06:57:48.424Z,22.70
2023-03-08T07:00:18.889Z,20.90
2023-03-08T07:02:48.704Z,23.00
2023-03-08T07:05:17.176Z,21.35
2023-03-08T07:07:45.561Z,19.80
2023-03-08T07:10:15.734Z,21.15
2023-03-08T07:12:48.359Z,27.08
2023-03-08T07:15:20.084Z,19.48
2023-03-08T07:17:49.099Z,18.42
2023-03-08T07:20:19.135Z,20.90
2023-03-08T07:22:48.004Z,21.10
2023-03-08T07:25:17.696Z,18.60
2023-03-08T07:27:46.299Z,22.45
2023-03-08T07:30:19.146Z,20.42
2023-03-08T07:32:47.991Z,18.80
2023-03-08T07:35:17.184Z,20.83
2023-03-08T07:37:46.166Z,19.00
2023-03-08T07:40:15.683Z,20.35
2023-03-08T07:42:44.051Z,25.33
2023-03-08T07:45:36.572Z,21.88
2023-03-08T07:48:08.151Z,19.63
2023-03-08T07:50:36.552Z,20.70
2023-03-08T07:53:05.438Z,18.48
2023-03-08T07:55:33.719Z,22.30
2023-03-08T07:58:02.066Z,21.10
2023-03-08T08:00:30.541Z,18.87
2023-03-08T08:03:00.028Z,21.52
2023-03-08T08:05:28.648Z,21.05
2023-03-08T08:07:57.094Z,20.30
2023-03-08T08:10:25.391Z,17.40
2023-03-08T08:12:53.767Z,21.73
2023-03-08T08:15:23.583Z,21.27
2023-03-08T08:17:51.910Z,21.75
2023-03-08T08:20:25.179Z,24.48
2023-03-08T08:22:53.697Z,19.60
2023-03-08T08:25:22.555Z,18.83
2023-03-08T08:27:52.068Z,21.40
2023-03-08T08:30:20.788Z,20.08
2023-03-08T08:32:49.453Z,24.38
2023-03-08T08:35:25.484Z,21.38
2023-03-08T08:38:03.142Z,21.08
2023-03-08T08:40:31.956Z,20.20
2023-03-08T08:43:01.122Z,19.15
2023-03-08T08:45:57.054Z,22.55
2023-03-08T08:48:35.006Z,20.05
2023-03-08T08:51:08.725Z,23.92
2023-03-08T08:53:37.487Z,23.08
2023-03-08T08:56:25.593Z,22.20
2023-03-08T08:58:55.973Z,21.35
2023-03-08T09:01:25.762Z,24.13
2023-03-08T09:03:55.082Z,23.60
2023-03-08T09:06:28.170Z,19.75
2023-03-08T09:09:00.454Z,20.90
2023-03-08T09:11:30.148Z,19.70
2023-03-08T09:13:59.236Z,19.35
2023-03-08T09:16:29.414Z,18.30
2023-03-08T09:19:04.902Z,21.70
2023-03-08T09:21:35.521Z,19.88
2023-03-08T09:24:06.079Z,24.40
2023-03-08T09:26:35.780Z,20.55
2023-03-08T09:29:07.413Z,18.37
2023-03-08T09:31:42.699Z,22.33
2023-03-08T09:34:19.709Z,20.35
2023-03-08T09:36:53.563Z,18.55
2023-03-08T09:39:22.450Z,27.17
2023-03-08T09:41:57.546Z,30.13
2023-03-08T09:44:51.606Z,22.08
2023-03-08T09:47:29.910Z,16.77
2023-03-08T09:50:08.596Z,20.60
2023-03-08T09:52:44.286Z,20.45
2023-03-08T09:55:26.220Z,22.53
2023-03-08T09:58:02.259Z,23.88
2023-03-08T10:00:36.199Z,22.63
2023-03-08T10:03:25.843Z,20.75
2023-03-08T10:06:26.380Z,21.02
2023-03-08T10:09:04.955Z,19.83
2023-03-08T10:11:46.845Z,19.95
2023-03-08T10:14:24.680Z,22.75
2023-03-08T10:16:58.140Z,20.50
2023-03-08T10:19:32.223Z,24.20
2023-03-08T10:22:09.053Z,20.67
2023-03-08T10:24:44.902Z,25.08
2023-03-08T10:27:19.242Z,21.42
2023-03-08T10:29:52.293Z,21.67
2023-03-08T10:32:21.025Z,20.70
2023-03-08T10:34:50.192Z,16.60
2023-03-08T10:37:21.099Z,20.08
2023-03-08T10:39:53.355Z,20.67
2023-03-08T10:42:23.920Z,21.27
2023-03-08T10:44:59.402Z,20.55
2023-03-08T10:47:29.380Z,21.50
2023-03-08T10:50:13.917Z,22.80
2023-03-08T10:52:42.851Z,16.75
2023-03-08T10:55:22.085Z,17.92
2023-03-08T10:57:54.065Z,19.65
2023-03-08T11:00:33.855Z,18.90
2023-03-08T11:03:17.611Z,19.63
2023-03-08T11:06:00.230Z,17.58
2023-03-08T11:08:31.399Z,23.52
2023-03-08T11:11:09.298Z,18.77
2023-03-08T11:13:42.046Z,20.03
2023-03-08T11:16:27.040Z,20.08
2023-03-08T11:19:04.268Z,21.17
2023-03-08T11:21:42.532Z,17.10
2023-03-08T11:24:21.840Z,18.15
2023-03-08T11:27:02.090Z,16.40
2023-03-08T11:29:41.086Z,17.48
2023-03-08T11:32:18.482Z,16.90
2023-03-08T11:35:05.569Z,18.02
2023-03-08T11:37:43.164Z,16.88
2023-03-08T11:40:26.422Z,18.03
2023-03-08T11:43:11.415Z,17.55
2023-03-08T11:45:47.745Z,18.52
2023-03-08T11:48:35.397Z,19.65
2023-03-08T11:51:10.304Z,18.75
2023-03-08T11:53:51.405Z,16.97
2023-03-08T11:56:36.053Z,16.60
2023-03-08T11:59:11.798Z,18.70
2023-03-08T12:01:48.894Z,16.75
2023-03-08T12:04:20.914Z,16.27
2023-03-08T12:06:50.369Z,14.20
2023-03-08T12:09:26.107Z,14.82
2023-03-08T12:12:03.249Z,12.90
2023-03-08T12:14:37.657Z,12.00
2023-03-08T12:17:11.603Z,10.65
2023-03-08T12:19:44.716Z,10.97
2023-03-08T12:22:25.789Z,10.77
2023-03-08T12:25:00.282Z,11.60
2023-03-08T12:27:31.306Z,12.07
2023-03-08T12:30:12.708Z,9.60
2023-03-08T12:32:42.922Z,10.60
2023-03-08T12:35:29.974Z,9.52
2023-03-08T12:38:00.754Z,9.20
2023-03-08T12:40:37.006Z,7.70
2023-03-08T12:43:08.356Z,8.55
2023-03-08T12:45:38.921Z,6.90
2023-03-08T12:48:19.770Z,6.97
2023-03-08T12:51:05.703Z,9.35
2023-03-08T12:53:43.203Z,8.30
2023-03-08T12:56:34.109Z,6.22
2023-03-08T12:59:04.628Z,8.20
2023-03-08T13:01:38.437Z,6.25
2023-03-08T13:04:39.097Z,7.88
2023-03-08T13:07:36.173Z,5.50
2023-03-08T13:10:19.577Z,6.25
2023-03-08T13:13:37.161Z,9.10
2023-03-08T13:16:18.665Z,5.38
2023-03-08T13:18:49.977Z,5.57
2023-03-08T13:21:28.305Z,6.63
2023-03-08T13:24:00.235Z,7.25
2023-03-08T13:26:49.731Z,5.20
2023-03-08T13:29:21.490Z,5.97
2023-03-08T13:31:53.034Z,5.28
2023-03-08T13:34:27.890Z,6.13
2023-03-08T13:36:57.036Z,7.68
2023-03-08T13:39:27.651Z,5.10
2023-03-08T13:42:07.726Z,8.18
2023-03-08T13:44:39.688Z,8.05
2023-03-08T13:47:20.904Z,7.50
2023-03-08T13:49:54.743Z,6.43
2023-03-08T13:52:29.371Z,4.47
2023-03-08T13:55:01.194Z,4.85
2023-03-08T13:57:33.578Z,7.82
2023-03-08T14:00:03.928Z,5.43
2023-03-08T14:02:33.619Z,4.80
2023-03-08T14:05:03.995Z,7.03
2023-03-08T14:07:33.107Z,5.10
2023-03-08T14:10:01.682Z,5.28
2023-03-08T14:12:33.195Z,4.47
2023-03-08T14:15:03.522Z,8.63
2023-03-08T14:17:35.988Z,5.10
2023-03-08T14:20:18.409Z,4.50
2023-03-08T14:22:49.431Z,5.18
2023-03-08T14:25:30.188Z,10.27
2023-03-08T14:27:59.043Z,5.00
2023-03-08T14:30:29.271Z,3.93
2023-03-08T14:33:04.227Z,6.80
2023-03-08T14:35:39.868Z,4.13
2023-03-08T14:38:23.048Z,3.60
2023-03-08T14:40:57.356Z,3.78
2023-03-08T14:43:27.281Z,4.00
2023-03-08T14:45:57.929Z,3.95
2023-03-08T14:48:30.010Z,4.65
2023-03-08T14:51:01.561Z,4.88
2023-03-08T14:53:32.653Z,7.60
2023-03-08T14:56:03.611Z,4.27
2023-03-08T14:58:33.683Z,3.97
2023-03-08T15:01:03.510Z,5.65
2023-03-08T15:03:34.823Z,5.03
2023-03-08T15:06:12.187Z,5.25
2023-03-08T15:08:40.793Z,3.63
2023-03-08T15:11:09.382Z,6.38
2023-03-08T15:13:37.755Z,5.60
2023-03-08T15:16:07.944Z,5.13
2023-03-08T15:18:36.489Z,4.47
2023-03-08T15:21:06.499Z,5.07
2023-03-08T15:23:38.840Z,3.90
2023-03-08T15:26:09.782Z,4.50
2023-03-08T15:28:38.190Z,4.65
2023-03-08T15:31:06.802Z,4.68
2023-03-08T15:33:35.264Z,4.57
2023-03-08T15:36:04.049Z,5.07
2023-03-08T15:38:33.676Z,5.28
2023-03-08T15:41:05.090Z,4.13
2023-03-08T15:43:33.908Z,7.53
2023-03-08T15:46:03.704Z,4.23
2023-03-08T15:48:36.305Z,4.10
2023-03-08T15:51:08.338Z,3.47
2023-03-08T15:53:38.395Z,4.13
2023-03-08T15:56:10.132Z,4.47
2023-03-08T15:58:38.933Z,3.73
2023-03-08T16:01:09.258Z,4.75
2023-03-08T16:03:38.234Z,7.82
2023-03-08T16:06:10.396Z,5.57
2023-03-08T16:08:41.097Z,4.55
2023-03-08T16:11:09.662Z,4.87
2023-03-08T16:13:38.176Z,4.20
2023-03-08T16:16:08.050Z,4.75
2023-03-08T16:18:38.012Z,4.13
2023-03-08T16:21:09.706Z,7.65
2023-03-08T16:23:41.742Z,4.83
2023-03-08T16:26:16.239Z,4.88
2023-03-08T16:28:45.681Z,3.70
2023-03-08T16:31:14.135Z,4.00
2023-03-08T16:33:42.718Z,4.43
2023-03-08T16:36:11.122Z,4.80
2023-03-08T16:38:39.566Z,5.55
2023-03-08T16:41:15.380Z,3.65
2023-03-08T16:43:47.961Z,5.63
2023-03-08T16:46:19.584Z,4.07
2023-03-08T16:48:54.469Z,5.00
2023-03-08T16:51:25.208Z,6.18
2023-03-08T16:53:53.720Z,4.70
2023-03-08T16:56:25.616Z,9.38
2023-03-08T16:58:57.066Z,4.75
2023-03-08T17:01:26.545Z,4.83
2023-03-08T17:03:59.294Z,4.32
2023-03-08T17:06:31.617Z,4.63
2023-03-08T17:09:00.410Z,3.55
2023-03-08T17:11:30.136Z,3.45
2023-03-08T17:14:03.268Z,3.47
2023-03-08T17:16:33.002Z,7.13
2023-03-08T17:19:02.593Z,4.70
2023-03-08T17:21:31.303Z,4.05
2023-03-08T17:24:00.596Z,4.47
2023-03-08T17:26:29.200Z,6.20
2023-03-08T17:28:57.788Z,3.63
2023-03-08T17:31:27.805Z,4.18
2023-03-08T17:34:16.745Z,4.28
2023-03-08T17:36:46.887Z,7.25
2023-03-08T17:39:17.597Z,4.57
2023-03-08T17:41:46.508Z,4.10
2023-03-08T17:44:15.796Z,3.42
2023-03-08T17:46:45.703Z,4.78
2023-03-08T17:49:16.237Z,4.28
2023-03-08T17:51:47.089Z,4.33
2023-03-08T17:54:15.862Z,3.40
2023-03-08T17:56:44.644Z,5.60
2023-03-08T17:59:16.095Z,4.57
2023-03-08T18:01:50.928Z,4.82
2023-03-08T18:04:22.620Z,4.17
2023-03-08T18:06:59.461Z,5.40
2023-03-08T18:09:34.207Z,5.65
2023-03-08T18:12:10.484Z,4.63
2023-03-08T18:14:45.510Z,5.43
2023-03-08T18:17:15.334Z,5.40
2023-03-08T18:21:01.329Z,7.10
2023-03-08T18:23:22.418Z,5.05
2023-03-08T18:25:56.937Z,4.47
2023-03-08T18:28:26.149Z,5.32
2023-03-08T18:31:11.347Z,5.80
2023-03-08T18:33:44.017Z,4.97
2023-03-08T18:39:10.252Z,5.30
2023-03-08T18:42:25.833Z,9.77
2023-03-08T18:44:57.278Z,5.50
2023-03-08T18:47:28.227Z,5.32
2023-03-08T18:50:00.392Z,4.85
2023-03-08T18:52:35.321Z,4.80
2023-03-08T18:55:12.910Z,5.13
2023-03-08T18:58:21.237Z,4.10
2023-03-08T19:01:15.471Z,5.75
2023-03-08T19:03:45.407Z,3.85
2023-03-08T19:06:22.615Z,4.95
2023-03-08T19:08:51.710Z,4.30
2023-03-08T19:11:35.366Z,5.70
2023-03-08T19:14:04.702Z,3.90
2023-03-08T19:16:36.797Z,4.70
2023-03-08T19:19:41.227Z,3.55
2023-03-08T19:22:18.348Z,5.30
2023-03-08T19:24:54.518Z,4.60
2023-03-08T19:27:23.392Z,4.03
2023-03-08T19:30:49.744Z,3.13
2023-03-08T19:36:38.913Z,3.90
2023-03-08T19:39:12.556Z,4.33
2023-03-08T19:41:51.942Z,3.38
2023-03-08T19:44:21.343Z,4.43
2023-03-08T19:46:58.665Z,3.10
2023-03-08T19:49:35.752Z,3.05
2023-03-08T19:52:07.920Z,2.93
2023-03-08T19:54:38.181Z,2.72
2023-03-08T19:57:08.131Z,2.35
2023-03-08T19:59:37.951Z,3.10
2023-03-08T20:02:10.340Z,2.63
2023-03-08T20:04:40.709Z,4.13
2023-03-08T20:07:09.729Z,2.42
2023-03-08T20:10:02.293Z,2.70
2023-03-08T20:12:39.569Z,5.78
2023-03-08T20:15:10.196Z,3.85
2023-03-08T20:17:38.780Z,3.10
2023-03-08T20:20:12.688Z,3.15
2023-03-08T20:22:42.441Z,4.53
2023-03-08T20:25:15.592Z,5.25
2023-03-08T20:27:44.929Z,5.47
2023-03-08T20:30:14.933Z,3.80
2023-03-08T20:32:43.639Z,6.75
2023-03-08T20:35:15.057Z,7.47
2023-03-08T20:37:44.074Z,5.05
2023-03-08T20:40:16.724Z,4.40
2023-03-08T20:42:45.517Z,5.67
2023-03-08T20:45:14.245Z,5.10
2023-03-08T20:47:42.633Z,3.67
2023-03-08T20:50:12.283Z,7.15
2023-03-08T20:52:40.682Z,4.63
2023-03-08T20:55:09.391Z,5.00
2023-03-08T20:57:39.028Z,3.58
2023-03-08T21:00:09.612Z,3.75
2023-03-08T21:02:41.291Z,4.72
2023-03-08T21:05:12.293Z,5.45
2023-03-08T21:07:41.178Z,4.53
2023-03-08T21:10:10.478Z,8.10
2023-03-08T21:12:40.289Z,9.85
2023-03-08T21:15:10.111Z,4.78
2023-03-08T21:17:40.036Z,4.97
2023-03-08T21:20:10.873Z,5.83
2023-03-08T21:22:39.547Z,6.85
2023-03-08T21:25:08.531Z,7.28
2023-03-08T21:27:37.436Z,5.32
2023-03-08T21:30:08.399Z,4.85
2023-03-08T21:32:36.852Z,5.83
2023-03-08T21:35:05.775Z,5.38
2023-03-08T21:37:34.172Z,4.72
2023-03-08T21:40:02.612Z,6.35
2023-03-08T21:42:31.002Z,6.72
2023-03-08T21:44:59.405Z,7.00
2023-03-08T21:47:34.118Z,4.75
2023-03-08T21:50:02.951Z,4.20
2023-03-08T21:52:31.572Z,5.47
2023-03-08T21:55:00.120Z,6.88
2023-03-08T21:57:28.951Z,7.90
2023-03-08T21:59:57.469Z,6.20
2023-03-08T22:02:26.114Z,8.45
2023-03-08T22:04:55.644Z,4.75
2023-03-08T22:07:24.122Z,7.35
2023-03-08T22:09:52.709Z,5.63
2023-03-08T22:12:36.019Z,6.18
2023-03-08T22:15:04.675Z,6.15
2023-03-08T22:17:33.120Z,7.93
2023-03-08T22:20:09.213Z,6.50
2023-03-08T22:22:38.031Z,4.87
2023-03-08T22:25:07.652Z,5.78
2023-03-08T22:27:36.110Z,7.38
2023-03-08T22:30:05.155Z,4.60
2023-03-08T22:32:33.721Z,5.85
2023-03-08T22:35:02.218Z,5.40
2023-03-08T22:37:31.863Z,5.15
2023-03-08T22:40:00.380Z,5.05
2023-03-08T22:42:29.118Z,6.10
2023-03-08T22:44:57.580Z,5.00
2023-03-08T22:47:26.223Z,5.30
2023-03-08T22:49:54.669Z,4.85
2023-03-08T22:52:23.294Z,8.93
2023-03-08T22:54:52.712Z,4.85
2023-03-08T22:57:21.115Z,5.70
2023-03-08T22:59:49.680Z,7.63
2023-03-08T23:02:18.112Z,4.97
2023-03-08T23:04:46.524Z,6.25
2023-03-08T23:07:14.915Z,5.13
2023-03-08T23:09:43.532Z,5.10
2023-03-08T23:12:13.030Z,6.77
2023-03-08T23:14:42.635Z,6.70
2023-03-08T23:17:12.469Z,5.65
2023-03-08T23:19:45.127Z,5.00
2023-03-08T23:22:13.472Z,4.97
2023-03-08T23:24:41.837Z,5.57
2023-03-08T23:27:10.258Z,5.28
2023-03-08T23:29:39.776Z,3.38
2023-03-08T23:32:08.717Z,5.35
2023-03-08T23:34:37.355Z,5.78
2023-03-08T23:37:05.742Z,5.20
2023-03-08T23:39:34.979Z,5.03
2023-03-08T23:42:03.414Z,5.07
2023-03-08T23:44:31.716Z,5.72
2023-03-08T23:47:01.220Z,6.10
2023-03-08T23:49:29.525Z,5.83
2023-03-08T23:51:57.851Z,3.90
2023-03-08T23:54:26.324Z,3.65
2023-03-08T23:56:54.711Z,7.18
2023-03-08T23:59:24.026Z,5.78
